createdAt,value
2023-03-17T00:01:51.384Z,6.70
2023-03-17T00:07:17.084Z,6.71
2023-03-17T00:12:38.774Z,6.66
2023-03-17T00:18:00.461Z,6.63
2023-03-17T00:23:24.362Z,6.61
2023-03-17T00:28:46.180Z,6.72
2023-03-17T00:34:15.479Z,6.59
2023-03-17T00:39:37.209Z,6.60
2023-03-17T00:44:58.934Z,6.50
2023-03-17T00:50:24.277Z,6.59
2023-03-17T00:55:47.741Z,6.54
2023-03-17T01:01:09.978Z,6.51
2023-03-17T01:06:31.947Z,6.72
2023-03-17T01:11:55.497Z,6.72
2023-03-17T01:17:18.217Z,6.74
2023-03-17T01:22:40.042Z,6.77
2023-03-17T01:28:02.126Z,6.85
2023-03-17T01:33:24.054Z,6.75
2023-03-17T01:38:48.122Z,6.80
2023-03-17T01:44:16.837Z,6.70
2023-03-17T01:49:39.095Z,6.80
2023-03-17T01:55:06.855Z,6.71
2023-03-17T02:00:29.646Z,6.99
2023-03-17T02:05:53.052Z,7.00
2023-03-17T02:11:15.241Z,6.97
2023-03-17T02:16:37.299Z,6.75
2023-03-17T02:21:59.990Z,6.96
2023-03-17T02:27:26.272Z,7.00
2023-03-17T02:32:48.084Z,7.00
2023-03-17T02:38:10.352Z,7.08
2023-03-17T02:43:32.285Z,7.16
2023-03-17T02:48:54.761Z,7.10
2023-03-17T02:54:16.441Z,7.17
2023-03-17T02:59:38.235Z,7.16
2023-03-17T03:04:59.941Z,7.09
2023-03-17T03:10:22.089Z,6.99
2023-03-17T03:15:43.940Z,6.83
2023-03-17T03:21:07.330Z,6.80
2023-03-17T03:26:29.148Z,6.85
2023-03-17T03:31:51.248Z,6.72
2023-03-17T03:37:13.245Z,6.74
2023-03-17T03:42:35.184Z,6.71
2023-03-17T03:47:56.988Z,6.72
2023-03-17T03:53:18.785Z,6.36
2023-03-17T03:58:41.863Z,6.39
2023-03-17T04:04:03.769Z,6.45
2023-03-17T04:09:25.857Z,6.33
2023-03-17T04:14:47.651Z,6.45
2023-03-17T04:20:11.536Z,6.47
2023-03-17T04:25:33.333Z,6.22
2023-03-17T04:30:55.034Z,6.23
2023-03-17T04:36:19.989Z,6.42
2023-03-17T04:41:41.935Z,6.46
2023-03-17T04:47:03.839Z,6.33
2023-03-17T04:52:25.633Z,6.28
2023-03-17T04:57:47.520Z,6.11
2023-03-17T05:03:25.767Z,5.89
2023-03-17T05:08:48.654Z,5.87
2023-03-17T05:14:10.411Z,6.05
2023-03-17T05:19:32.237Z,6.07
2023-03-17T05:24:54.050Z,6.03
2023-03-17T05:30:15.876Z,5.78
2023-03-17T05:35:37.879Z,5.91
2023-03-17T05:40:59.650Z,5.80
2023-03-17T05:46:22.325Z,5.78
2023-03-17T05:51:44.118Z,5.95
2023-03-17T05:57:05.995Z,5.90
2023-03-17T06:02:27.778Z,6.01
2023-03-17T06:07:54.909Z,5.94
2023-03-17T06:13:18.078Z,6.06
2023-03-17T06:18:40.103Z,5.59
2023-03-17T06:24:01.954Z,5.60
2023-03-17T06:29:24.783Z,6.00
2023-03-17T06:34:47.246Z,5.94
2023-03-17T06:40:10.166Z,6.05
2023-03-17T06:45:33.083Z,6.07
2023-03-17T06:50:55.131Z,6.19
2023-03-17T06:56:29.148Z,6.18
2023-03-17T07:01:52.145Z,6.31
2023-03-17T07:07:13.946Z,6.30
2023-03-17T07:12:36.859Z,6.56
2023-03-17T07:17:58.535Z,6.68
2023-03-17T07:23:22.665Z,6.67
2023-03-17T07:28:44.711Z,6.86
2023-03-17T07:34:06.704Z,7.04
2023-03-17T07:39:28.803Z,7.12
2023-03-17T07:44:51.588Z,7.26
2023-03-17T07:50:14.011Z,7.38
2023-03-17T07:55:38.012Z,7.53
2023-03-17T08:00:59.891Z,7.61
2023-03-17T08:06:24.509Z,7.70
2023-03-17T08:11:46.433Z,7.78
2023-03-17T08:17:08.405Z,7.88
2023-03-17T08:22:30.598Z,8.08
2023-03-17T08:27:55.097Z,8.26
2023-03-17T08:33:17.086Z,8.49
2023-03-17T08:38:41.149Z,8.60
2023-03-17T08:44:03.781Z,8.69
2023-03-17T08:49:27.244Z,8.74
2023-03-17T08:54:48.951Z,8.82
2023-03-17T09:00:14.460Z,9.01
2023-03-17T09:05:38.460Z,9.17
2023-03-17T09:11:01.242Z,9.28
2023-03-17T09:16:23.872Z,9.42
2023-03-17T09:21:46.100Z,9.58
2023-03-17T09:27:07.935Z,9.76
2023-03-17T09:32:29.841Z,9.91
2023-03-17T09:37:51.788Z,10.01
2023-03-17T09:43:45.802Z,10.15
2023-03-17T09:49:13.790Z,10.26
2023-03-17T09:54:39.108Z,10.39
2023-03-17T10:00:16.550Z,10.50
2023-03-17T10:05:38.884Z,10.64
2023-03-17T10:11:25.688Z,10.78
2023-03-17T10:16:57.020Z,10.95
2023-03-17T10:22:38.034Z,11.11
2023-03-17T10:28:26.473Z,11.30
2023-03-17T10:33:54.517Z,11.43
2023-03-17T10:39:21.794Z,11.59
2023-03-17T10:45:14.311Z,11.77
2023-03-17T10:50:39.688Z,11.95
2023-03-17T10:56:20.323Z,12.21
2023-03-17T11:01:49.656Z,12.41
2023-03-17T11:07:20.352Z,12.68
2023-03-17T11:12:42.349Z,12.80
2023-03-17T11:18:32.855Z,12.99
2023-03-17T11:24:04.537Z,13.13
2023-03-17T11:29:45.628Z,13.30
2023-03-17T11:35:38.353Z,13.38
2023-03-17T11:41:22.572Z,13.44
2023-03-17T11:46:56.563Z,13.51
2023-03-17T11:52:40.175Z,13.61
2023-03-17T11:58:12.336Z,13.97
2023-03-17T12:03:54.221Z,14.04
2023-03-17T12:09:30.663Z,14.27
2023-03-17T12:14:54.010Z,14.33
2023-03-17T12:20:33.474Z,14.33
2023-03-17T12:26:14.046Z,14.35
2023-03-17T12:31:39.249Z,14.49
2023-03-17T12:37:02.686Z,14.66
2023-03-17T12:42:38.360Z,14.73
2023-03-17T12:48:02.779Z,14.78
2023-03-17T12:53:38.468Z,14.90
2023-03-17T12:59:04.400Z,14.95
2023-03-17T13:04:37.770Z,14.95
2023-03-17T13:10:02.466Z,14.92
2023-03-17T13:15:37.220Z,14.89
2023-03-17T13:21:02.180Z,14.94
2023-03-17T13:26:56.989Z,15.05
2023-03-17T13:32:24.771Z,15.05
2023-03-17T13:38:12.881Z,15.14
2023-03-17T13:43:48.647Z,15.15
2023-03-17T13:49:24.122Z,15.16
2023-03-17T13:54:59.606Z,15.21
2023-03-17T14:00:27.030Z,15.25
2023-03-17T14:05:53.163Z,15.26
2023-03-17T14:11:38.841Z,15.33
2023-03-17T14:17:18.869Z,15.44
2023-03-17T14:22:46.501Z,15.52
2023-03-17T14:28:13.922Z,15.59
2023-03-17T14:33:38.668Z,15.56
2023-03-17T14:39:00.452Z,15.58
2023-03-17T14:44:22.203Z,15.57
2023-03-17T14:49:44.282Z,15.50
2023-03-17T14:55:06.822Z,15.48
2023-03-17T15:00:36.302Z,15.59
2023-03-17T15:06:24.343Z,15.73
2023-03-17T15:11:47.584Z,16.10
2023-03-17T15:17:21.972Z,15.99
2023-03-17T15:22:48.620Z,15.83
2023-03-17T15:28:12.722Z,15.76
2023-03-17T15:33:39.705Z,15.75
2023-03-17T15:39:03.332Z,15.59
2023-03-17T15:44:25.994Z,15.55
2023-03-17T15:49:49.530Z,15.46
2023-03-17T15:55:17.364Z,15.39
2023-03-17T16:00:39.542Z,15.35
2023-03-17T16:06:03.886Z,15.30
2023-03-17T16:11:29.448Z,15.31
2023-03-17T16:16:51.450Z,15.25
2023-03-17T16:22:35.448Z,15.21
2023-03-17T16:27:59.419Z,15.18
2023-03-17T16:33:27.014Z,15.13
2023-03-17T16:38:49.750Z,15.11
2023-03-17T16:44:12.101Z,15.06
2023-03-17T16:49:33.901Z,15.04
2023-03-17T16:54:55.716Z,14.96
2023-03-17T17:00:30.446Z,14.90
2023-03-17T17:05:52.259Z,14.84
2023-03-17T17:11:15.903Z,14.78
2023-03-17T17:16:42.437Z,14.72
2023-03-17T17:22:04.308Z,14.69
2023-03-17T17:27:26.079Z,14.61
2023-03-17T17:32:48.313Z,14.40
2023-03-17T17:38:26.775Z,14.46
2023-03-17T17:43:49.941Z,14.43
2023-03-17T17:49:12.479Z,14.38
2023-03-17T17:54:34.316Z,14.36
2023-03-17T17:59:56.228Z,14.33
2023-03-17T18:05:18.473Z,14.31
2023-03-17T18:10:40.388Z,14.27
2023-03-17T18:16:03.857Z,14.19
2023-03-17T18:21:25.896Z,14.15
2023-03-17T18:26:47.688Z,14.10
2023-03-17T18:32:11.620Z,14.07
2023-03-17T18:37:35.658Z,14.04
2023-03-17T18:42:57.534Z,13.98
2023-03-17T18:48:19.820Z,13.78
2023-03-17T18:53:41.806Z,13.66
2023-03-17T18:59:03.697Z,13.62
2023-03-17T19:04:25.925Z,13.58
2023-03-17T19:09:48.120Z,13.54
2023-03-17T19:15:10.686Z,13.47
2023-03-17T19:20:34.435Z,13.45
2023-03-17T19:25:56.280Z,13.45
2023-03-17T19:31:18.170Z,13.39
2023-03-17T19:36:42.068Z,13.35
2023-03-17T19:42:04.151Z,13.41
2023-03-17T19:47:26.334Z,13.43
2023-03-17T19:52:48.857Z,13.35
2023-03-17T19:58:12.548Z,13.35
2023-03-17T20:03:37.905Z,13.31
2023-03-17T20:09:00.268Z,13.30
2023-03-17T20:14:22.303Z,13.24
2023-03-17T20:19:45.560Z,13.19
2023-03-17T20:25:10.376Z,12.89
2023-03-17T20:30:33.674Z,12.79
2023-03-17T20:35:56.676Z,12.73
2023-03-17T20:41:19.528Z,12.80
2023-03-17T20:46:42.871Z,12.80
2023-03-17T20:52:06.366Z,12.73
2023-03-17T20:57:28.833Z,12.75
2023-03-17T21:02:52.052Z,12.69
2023-03-17T21:08:14.209Z,12.75
2023-03-17T21:13:36.359Z,12.74
2023-03-17T21:18:58.878Z,12.78
2023-03-17T21:24:33.521Z,12.65
2023-03-17T21:29:55.592Z,12.70
2023-03-17T21:35:18.137Z,12.68
2023-03-17T21:40:40.477Z,12.56
2023-03-17T21:46:03.371Z,12.43
2023-03-17T21:51:26.032Z,12.36
2023-03-17T21:56:49.471Z,12.34
2023-03-17T22:02:12.613Z,12.35
2023-03-17T22:07:34.463Z,12.40
2023-03-17T22:12:56.431Z,12.49
2023-03-17T22:18:18.264Z,12.48
2023-03-17T22:23:42.113Z,12.44
2023-03-17T22:29:04.080Z,12.40
2023-03-17T22:34:26.219Z,12.49
2023-03-17T22:39:47.953Z,12.42
2023-03-17T22:45:12.978Z,12.50
2023-03-17T22:50:34.882Z,12.43
2023-03-17T22:55:56.754Z,12.53
2023-03-17T23:01:19.176Z,12.48
2023-03-17T23:06:41.546Z,12.38
2023-03-17T23:12:03.277Z,12.31
2023-03-17T23:17:25.256Z,12.23
2023-03-17T23:22:47.052Z,12.25
2023-03-17T23:28:09.856Z,12.24
2023-03-17T23:33:31.632Z,12.17
2023-03-17T23:38:53.463Z,12.12
2023-03-17T23:44:15.236Z,12.06
2023-03-17T23:49:36.990Z,12.10
2023-03-17T23:55:00.993Z,11.99
